Time;durP1;ratioP1;P1;durP2;ratioP2;P2;SDS_P1;SDS_P2;PMS_P1;PMS_P2;Temp;Humidity;BMP_temperature;BMP_pressure;BME280_temperature;BME280_humidity;BME280_pressure;Samples;Min_cycle;Max_cycle;Signal;HPM_P1;HPM_P2
2024/01/26 00:02:10;;;;;;;2.95;2.33;;;20.70;43.90;;;;;;5114703;28;20019;-52
2024/01/26 00:04:36;;;;;;;2.15;1.92;;;20.70;44.00;;;;;;5114034;28;20085;-56
2024/01/26 00:07:01;;;;;;;2.60;1.85;;;20.70;44.00;;;;;;5113910;28;20020;-54
2024/01/26 00:09:27;;;;;;;3.70;2.35;;;20.70;44.00;;;;;;5114237;28;20052;-53
2024/01/26 00:11:53;;;;;;;3.00;2.28;;;20.70;44.10;;;;;;5096131;28;20023;-53
2024/01/26 00:14:19;;;;;;;2.60;2.22;;;20.70;44.10;;;;;;5114769;28;20469;-56
2024/01/26 00:16:44;;;;;;;2.92;1.88;;;20.70;44.10;;;;;;5113534;28;20080;-52
2024/01/26 00:19:10;;;;;;;3.28;2.10;;;20.70;44.10;;;;;;5114179;28;20080;-50
2024/01/26 00:21:36;;;;;;;3.70;2.35;;;20.70;44.20;;;;;;5114248;28;20028;-54
2024/01/26 00:24:02;;;;;;;2.65;1.90;;;20.60;44.80;;;;;;5113667;28;20028;-52
2024/01/26 00:26:28;;;;;;;2.35;1.80;;;20.60;44.20;;;;;;5110751;28;20374;-51
2024/01/26 00:28:54;;;;;;;2.55;1.92;;;20.60;44.20;;;;;;5113269;28;20041;-53
2024/01/26 00:31:20;;;;;;;2.40;1.98;;;20.60;44.20;;;;;;5114195;28;20435;-52
2024/01/26 00:33:46;;;;;;;2.33;2.13;;;20.60;44.30;;;;;;5114117;28;20411;-55
2024/01/26 00:36:13;;;;;;;2.35;1.90;;;20.60;44.30;;;;;;5113858;28;20458;-55
2024/01/26 00:38:39;;;;;;;2.58;1.83;;;20.60;44.30;;;;;;5113887;28;20084;-50
2024/01/26 00:41:06;;;;;;;3.38;2.22;;;20.60;44.30;;;;;;5114107;28;20047;-48
2024/01/26 00:43:32;;;;;;;2.53;2.00;;;20.60;44.30;;;;;;5114078;28;20035;-51
2024/01/26 00:45:58;;;;;;;2.28;1.90;;;20.60;44.40;;;;;;5113353;28;21482;-51
2024/01/26 00:48:24;;;;;;;2.00;1.80;;;20.60;44.40;;;;;;5113373;28;20089;-54
2024/01/26 00:50:54;;;;;;;3.05;2.00;;;20.60;44.40;;;;;;5114121;28;20051;-56
2024/01/26 00:53:20;;;;;;;2.25;2.05;;;20.60;44.40;;;;;;5114093;28;20024;-55
2024/01/26 00:55:46;;;;;;;2.03;1.67;;;20.60;44.50;;;;;;5113770;28;20069;-52
2024/01/26 00:58:12;;;;;;;2.40;1.83;;;20.60;44.50;;;;;;5113519;28;20447;-55
2024/01/26 01:00:38;;;;;;;1.95;1.70;;;20.60;44.50;;;;;;5113061;28;20020;-55
2024/01/26 01:03:05;;;;;;;2.47;1.63;;;20.60;44.50;;;;;;5113544;28;20339;-56
2024/01/26 01:05:31;;;;;;;2.55;1.67;;;20.50;44.50;;;;;;5113191;28;20024;-55
2024/01/26 01:07:57;;;;;;;3.00;2.00;;;20.50;44.50;;;;;;5113392;28;20100;-53
2024/01/26 01:10:23;;;;;;;2.67;1.77;;;20.50;44.60;;;;;;5113167;28;20020;-53
2024/01/26 01:12:49;;;;;;;1.67;1.58;;;20.50;44.60;;;;;;5095316;28;20110;-56
2024/01/26 01:15:16;;;;;;;2.47;1.80;;;20.50;44.60;;;;;;5113014;28;20035;-55
2024/01/26 01:17:43;;;;;;;2.10;1.83;;;20.50;44.60;;;;;;5113484;28;20028;-54
2024/01/26 01:20:10;;;;;;;5.30;1.88;;;20.50;44.60;;;;;;5113441;28;20034;-55
2024/01/26 01:22:37;;;;;;;2.50;1.52;;;20.50;44.70;;;;;;5113529;28;20019;-56
2024/01/26 01:25:06;;;;;;;2.25;1.85;;;20.50;44.70;;;;;;5113023;28;20023;-55
2024/01/26 01:27:33;;;;;;;2.03;1.83;;;20.50;44.70;;;;;;5111314;28;20054;-54
2024/01/26 01:29:59;;;;;;;2.30;1.70;;;20.50;44.80;;;;;;5094414;28;20046;-55
2024/01/26 01:32:25;;;;;;;2.13;1.92;;;20.50;44.80;;;;;;5112963;28;20031;-54
2024/01/26 01:34:53;;;;;;;3.28;1.60;;;20.50;44.80;;;;;;5112753;28;20098;-53
2024/01/26 01:37:19;;;;;;;1.73;1.50;;;20.50;44.80;;;;;;5113099;28;20024;-53
2024/01/26 01:39:45;;;;;;;2.55;1.58;;;20.50;44.80;;;;;;5113014;28;20034;-54
2024/01/26 01:42:13;;;;;;;1.70;1.60;;;20.50;44.80;;;;;;5113243;28;20108;-52
2024/01/26 01:44:44;;;;;;;2.78;1.60;;;20.50;44.90;;;;;;5112882;28;20103;-55
2024/01/26 01:47:10;;;;;;;1.95;1.38;;;20.40;44.80;;;;;;5112633;28;20358;-55
2024/01/26 01:49:37;;;;;;;2.08;1.67;;;20.40;44.80;;;;;;5112702;28;20042;-55
2024/01/26 01:52:09;;;;;;;2.38;1.80;;;20.40;44.90;;;;;;5094553;28;20032;-52
2024/01/26 01:54:37;;;;;;;2.35;1.60;;;20.40;44.90;;;;;;5113124;28;20102;-53
2024/01/26 01:57:04;;;;;;;1.50;1.38;;;20.40;44.90;;;;;;5110050;28;20019;-54
2024/01/26 01:59:33;;;;;;;2.13;1.52;;;20.50;45.00;;;;;;5111922;28;20055;-54
2024/01/26 02:01:59;;;;;;;1.85;1.35;;;20.50;45.00;;;;;;5112664;28;20023;-54
2024/01/26 02:04:26;;;;;;;2.40;1.35;;;20.40;45.00;;;;;;5112448;28;20035;-55
2024/01/26 02:06:55;;;;;;;2.58;1.45;;;20.40;45.00;;;;;;5113115;28;20045;-52
2024/01/26 02:09:21;;;;;;;1.55;1.45;;;20.40;45.00;;;;;;5112419;28;20036;-54
2024/01/26 02:11:47;;;;;;;1.55;1.40;;;20.40;45.00;;;;;;5111866;28;20037;-54
2024/01/26 02:14:12;;;;;;;1.33;1.20;;;20.40;45.00;;;;;;5112858;28;20031;-55
2024/01/26 02:16:38;;;;;;;1.90;1.33;;;20.40;45.00;;;;;;5112893;28;20414;-54
2024/01/26 02:19:04;;;;;;;1.63;1.23;;;20.40;45.00;;;;;;5113147;28;20024;-56
2024/01/26 02:21:30;;;;;;;1.45;1.30;;;20.40;45.10;;;;;;5112864;28;20335;-51
2024/01/26 02:23:56;;;;;;;1.30;1.13;;;20.40;45.10;;;;;;5112262;28;20028;-56
2024/01/26 02:26:21;;;;;;;1.83;1.38;;;20.30;45.00;;;;;;5112520;28;20035;-52
2024/01/26 02:28:47;;;;;;;1.52;1.20;;;20.40;45.10;;;;;;5112422;28;20036;-51
2024/01/26 02:31:13;;;;;;;1.67;1.58;;;20.30;45.10;;;;;;5112351;28;20024;-53
2024/01/26 02:33:39;;;;;;;1.65;1.30;;;20.40;45.10;;;;;;5112583;28;20031;-53
2024/01/26 02:36:05;;;;;;;1.23;1.10;;;20.40;45.10;;;;;;5112081;28;20554;-53
2024/01/26 02:38:31;;;;;;;2.17;1.40;;;20.30;45.10;;;;;;5112620;28;20026;-52
2024/01/26 02:40:57;;;;;;;1.65;1.35;;;20.40;45.10;;;;;;5111718;28;20114;-53
2024/01/26 02:43:23;;;;;;;3.03;1.50;;;20.30;45.10;;;;;;5094751;28;20040;-56
2024/01/26 02:45:48;;;;;;;1.85;1.30;;;20.40;45.20;;;;;;5094501;28;20455;-55
2024/01/26 02:48:14;;;;;;;2.17;1.63;;;20.30;45.10;;;;;;5095975;28;20044;-54
2024/01/26 02:50:40;;;;;;;1.55;1.33;;;20.30;45.10;;;;;;5116638;28;20024;-54
2024/01/26 02:53:06;;;;;;;1.45;1.02;;;20.30;45.10;;;;;;5116238;28;20024;-55
2024/01/26 02:55:31;;;;;;;2.05;1.25;;;20.30;45.20;;;;;;5116065;28;20409;-53
2024/01/26 02:57:57;;;;;;;1.75;1.20;;;20.30;45.20;;;;;;5116056;28;20031;-53
2024/01/26 03:00:23;;;;;;;1.08;0.93;;;20.30;45.20;;;;;;5116179;28;20023;-51
2024/01/26 03:02:49;;;;;;;1.45;1.20;;;20.30;45.20;;;;;;5116067;28;20050;-55
2024/01/26 03:05:15;;;;;;;1.40;1.13;;;20.30;45.20;;;;;;5115890;28;20549;-52
2024/01/26 03:07:41;;;;;;;0.98;0.85;;;20.30;45.20;;;;;;5115267;28;20461;-51
2024/01/26 03:10:07;;;;;;;1.10;1.00;;;20.30;45.30;;;;;;5115076;28;20047;-51
2024/01/26 03:12:33;;;;;;;0.88;0.88;;;20.30;45.30;;;;;;5116365;28;20024;-51
2024/01/26 03:15:00;;;;;;;1.00;0.90;;;20.30;45.30;;;;;;5115712;28;20023;-53
2024/01/26 03:17:26;;;;;;;1.30;1.00;;;20.30;45.30;;;;;;5112886;28;20110;-55
2024/01/26 03:19:52;;;;;;;1.08;0.70;;;20.30;45.30;;;;;;5115437;28;20111;-51
2024/01/26 03:22:18;;;;;;;1.20;0.73;;;20.30;45.30;;;;;;5115486;28;20024;-54
2024/01/26 03:24:44;;;;;;;1.67;1.02;;;20.30;45.30;;;;;;5096939;28;20034;-51
2024/01/26 03:27:10;;;;;;;1.65;1.10;;;20.30;45.30;;;;;;5096862;28;20400;-55
2024/01/26 03:29:36;;;;;;;1.60;0.90;;;20.30;45.40;;;;;;5115368;28;20084;-52
2024/01/26 03:32:02;;;;;;;1.33;0.90;;;20.30;45.40;;;;;;5115470;28;20027;-52
2024/01/26 03:34:28;;;;;;;0.68;0.63;;;20.20;45.30;;;;;;5114725;28;20370;-56
2024/01/26 03:36:53;;;;;;;1.42;0.80;;;20.20;45.30;;;;;;5114985;28;20026;-52
2024/01/26 03:39:19;;;;;;;1.30;0.80;;;20.20;45.40;;;;;;5114191;28;20336;-56
2024/01/26 03:41:45;;;;;;;1.52;0.90;;;20.20;45.40;;;;;;5114519;28;20066;-53
2024/01/26 03:44:12;;;;;;;1.20;0.70;;;20.20;45.40;;;;;;5114251;28;20070;-55
2024/01/26 03:46:42;;;;;;;1.20;0.85;;;20.20;45.40;;;;;;5113296;28;20422;-55
2024/01/26 03:49:09;;;;;;;1.02;0.73;;;20.20;45.40;;;;;;5112901;28;20039;-52
2024/01/26 03:51:36;;;;;;;0.93;0.70;;;20.20;46.10;;;;;;5114886;28;20088;-52
2024/01/26 03:54:02;;;;;;;1.45;0.80;;;20.20;46.00;;;;;;5114463;28;20038;-54
2024/01/26 03:56:27;;;;;;;0.98;0.70;;;20.20;45.40;;;;;;5112148;28;20028;-53
2024/01/26 03:58:53;;;;;;;1.13;0.77;;;20.20;45.50;;;;;;5114417;28;20024;-56
2024/01/26 04:01:20;;;;;;;0.63;0.60;;;20.20;45.50;;;;;;5114391;28;20058;-54
2024/01/26 04:03:46;;;;;;;0.90;0.60;;;20.20;45.50;;;;;;5114365;28;20667;-54
2024/01/26 04:06:12;;;;;;;0.70;0.50;;;20.20;45.60;;;;;;5114802;28;20023;-57
2024/01/26 04:08:39;;;;;;;0.80;0.68;;;20.20;45.50;;;;;;5114078;28;20084;-55
2024/01/26 04:11:04;;;;;;;2.88;0.70;;;20.20;45.50;;;;;;5120770;27;20035;-49
2024/01/26 04:13:30;;;;;;;0.90;0.60;;;20.20;45.60;;;;;;5095869;28;20038;-53
2024/01/26 04:15:56;;;;;;;0.50;0.50;;;20.20;45.60;;;;;;5114104;28;20049;-52
2024/01/26 04:18:22;;;;;;;0.60;0.60;;;20.20;45.60;;;;;;5113732;28;20015;-52
2024/01/26 04:20:48;;;;;;;0.80;0.60;;;20.20;45.60;;;;;;5113752;28;20027;-55
2024/01/26 04:23:15;;;;;;;0.52;0.50;;;20.20;45.70;;;;;;5114304;28;20360;-53
2024/01/26 04:25:41;;;;;;;0.50;0.50;;;20.20;45.60;;;;;;5113365;28;20335;-53
2024/01/26 04:28:07;;;;;;;0.75;0.60;;;20.20;45.60;;;;;;5114036;28;20043;-53
2024/01/26 04:30:34;;;;;;;1.40;0.50;;;20.20;45.60;;;;;;5113506;28;20172;-52
2024/01/26 04:33:01;;;;;;;1.10;0.63;;;20.10;45.60;;;;;;5095808;28;20362;-53
2024/01/26 04:35:27;;;;;;;0.40;0.40;;;20.20;45.70;;;;;;5114353;28;20030;-56
2024/01/26 04:37:53;;;;;;;0.77;0.50;;;20.20;45.70;;;;;;5114544;28;20023;-52
2024/01/26 04:40:19;;;;;;;1.35;0.50;;;20.10;45.60;;;;;;5114314;28;20176;-55
2024/01/26 04:42:45;;;;;;;1.25;0.40;;;20.20;45.70;;;;;;5113802;28;20054;-55
2024/01/26 04:45:10;;;;;;;1.08;0.43;;;20.10;45.70;;;;;;5113963;28;20031;-53
2024/01/26 04:47:36;;;;;;;1.00;0.50;;;20.10;45.70;;;;;;5114410;28;20023;-52
2024/01/26 04:50:03;;;;;;;1.33;0.60;;;20.10;45.70;;;;;;5114269;28;20460;-52
2024/01/26 04:52:29;;;;;;;1.20;0.50;;;20.10;45.80;;;;;;5114297;28;20023;-52
2024/01/26 04:54:55;;;;;;;0.80;0.50;;;20.10;45.80;;;;;;5113878;28;20023;-56
2024/01/26 04:57:20;;;;;;;0.68;0.50;;;20.10;45.80;;;;;;5114571;28;20038;-51
2024/01/26 04:59:46;;;;;;;0.38;0.38;;;20.10;45.80;;;;;;5114303;28;20024;-50
2024/01/26 05:02:12;;;;;;;0.75;0.40;;;20.10;45.80;;;;;;5114297;28;20453;-54
2024/01/26 05:04:38;;;;;;;0.40;0.40;;;20.10;45.80;;;;;;5113802;28;20028;-55
2024/01/26 05:07:04;;;;;;;1.00;0.50;;;20.10;45.80;;;;;;5113988;28;20328;-51
2024/01/26 05:09:29;;;;;;;0.57;0.35;;;20.10;45.80;;;;;;5113873;28;20035;-54
2024/01/26 05:11:55;;;;;;;0.82;0.50;;;20.10;45.80;;;;;;5113282;28;20051;-53
2024/01/26 05:14:28;;;;;;;0.43;0.40;;;20.10;45.80;;;;;;5110711;28;20063;-55
2024/01/26 05:16:54;;;;;;;0.60;0.40;;;20.10;45.80;;;;;;5114125;28;20409;-56
2024/01/26 05:19:20;;;;;;;0.45;0.45;;;20.10;45.80;;;;;;5113979;28;20354;-54
2024/01/26 05:21:45;;;;;;;0.60;0.43;;;20.10;45.80;;;;;;5113995;28;20077;-52
2024/01/26 05:24:11;;;;;;;0.40;0.40;;;20.10;45.80;;;;;;5114024;28;20038;-51
2024/01/26 05:26:38;;;;;;;0.73;0.50;;;20.10;45.80;;;;;;5113951;28;20023;-53
2024/01/26 05:29:04;;;;;;;1.15;0.60;;;20.10;45.80;;;;;;5113210;28;20114;-53
2024/01/26 05:31:30;;;;;;;1.00;0.60;;;20.10;45.80;;;;;;5092423;28;20361;-53
2024/01/26 05:33:56;;;;;;;0.90;0.60;;;20.10;45.80;;;;;;5113850;28;20020;-53
2024/01/26 05:36:21;;;;;;;0.68;0.45;;;20.10;45.80;;;;;;5113836;28;20038;-52
2024/01/26 05:38:47;;;;;;;1.38;0.52;;;20.10;45.90;;;;;;5114119;28;20430;-53
2024/01/26 05:41:13;;;;;;;0.43;0.40;;;20.10;45.90;;;;;;5113259;28;20094;-54
2024/01/26 05:43:39;;;;;;;0.63;0.50;;;20.10;46.00;;;;;;5095207;28;20031;-53
2024/01/26 05:46:06;;;;;;;0.52;0.40;;;20.10;46.00;;;;;;5111136;28;20055;-52
2024/01/26 05:48:31;;;;;;;0.95;0.47;;;20.10;46.00;;;;;;5113605;28;20074;-55
2024/01/26 05:50:57;;;;;;;1.50;0.60;;;20.10;46.10;;;;;;5113438;28;20414;-54
2024/01/26 05:53:23;;;;;;;0.73;0.50;;;20.10;46.10;;;;;;5113771;28;20119;-54
2024/01/26 05:55:49;;;;;;;1.05;0.70;;;20.10;46.10;;;;;;5112882;28;20036;-54
2024/01/26 05:58:18;;;;;;;0.88;0.77;;;20.10;46.10;;;;;;5113609;28;20020;-53
2024/01/26 06:00:44;;;;;;;1.27;0.57;;;20.10;46.20;;;;;;5113286;28;20066;-51
2024/01/26 06:03:11;;;;;;;1.23;0.50;;;20.00;46.10;;;;;;5113550;28;20015;-54
2024/01/26 06:05:37;;;;;;;0.98;0.65;;;20.10;46.20;;;;;;5113286;28;20074;-55
2024/01/26 06:08:03;;;;;;;0.52;0.50;;;20.10;46.20;;;;;;5113332;28;20063;-54
2024/01/26 06:10:28;;;;;;;1.20;0.70;;;20.00;46.20;;;;;;5095476;28;20111;-52
2024/01/26 06:12:54;;;;;;;0.90;0.70;;;20.10;46.30;;;;;;5112908;28;20036;-54
2024/01/26 06:15:20;;;;;;;0.85;0.50;;;20.10;46.30;;;;;;5112824;28;20028;-51
2024/01/26 06:17:49;;;;;;;0.85;0.68;;;20.00;46.20;;;;;;5113366;28;20024;-54
2024/01/26 06:20:14;;;;;;;0.57;0.57;;;20.00;46.30;;;;;;5113418;28;20066;-54
2024/01/26 06:22:40;;;;;;;1.75;0.73;;;20.00;46.30;;;;;;5114174;28;20055;-53
2024/01/26 06:25:06;;;;;;;0.68;0.50;;;20.00;46.30;;;;;;5117454;28;20051;-51
2024/01/26 06:27:32;;;;;;;0.90;0.43;;;20.00;46.30;;;;;;5117322;28;20023;-52
2024/01/26 06:29:58;;;;;;;1.15;0.65;;;20.00;46.40;;;;;;5117333;28;20035;-52
2024/01/26 06:32:23;;;;;;;0.52;0.52;;;20.00;46.40;;;;;;5117041;28;20027;-51
2024/01/26 06:34:49;;;;;;;1.13;0.70;;;20.00;46.40;;;;;;5117069;28;20024;-54
2024/01/26 06:37:15;;;;;;;1.15;0.88;;;20.00;46.40;;;;;;5116527;28;20027;-52
2024/01/26 06:39:41;;;;;;;1.45;0.70;;;20.00;46.40;;;;;;5098770;28;20016;-50
2024/01/26 06:42:07;;;;;;;0.70;0.65;;;20.00;46.50;;;;;;5116748;28;20040;-54
2024/01/26 06:44:36;;;;;;;0.60;0.50;;;20.00;46.50;;;;;;5116921;28;20052;-57
2024/01/26 06:47:01;;;;;;;0.52;0.50;;;20.00;46.50;;;;;;5116571;27;20361;-52
2024/01/26 06:49:27;;;;;;;1.25;0.60;;;20.00;46.50;;;;;;5092233;28;20126;-51
2024/01/26 06:51:53;;;;;;;0.85;0.60;;;20.00;46.50;;;;;;5116012;28;20089;-54
2024/01/26 06:54:19;;;;;;;0.85;0.40;;;20.00;46.50;;;;;;5098726;28;20015;-56
2024/01/26 06:56:44;;;;;;;0.93;0.70;;;20.00;46.50;;;;;;5116944;28;20453;-52
2024/01/26 06:59:10;;;;;;;0.57;0.50;;;20.00;46.60;;;;;;5116580;28;20039;-55
2024/01/26 07:01:36;;;;;;;0.93;0.50;;;20.00;46.60;;;;;;5116688;28;20063;-53
2024/01/26 07:04:02;;;;;;;1.60;0.50;;;20.00;46.60;;;;;;5115968;28;20348;-54
2024/01/26 07:06:27;;;;;;;0.52;0.40;;;20.00;46.60;;;;;;5116378;28;20059;-54
2024/01/26 07:08:53;;;;;;;0.93;0.50;;;20.00;46.70;;;;;;5098298;28;20466;-52
2024/01/26 07:11:20;;;;;;;0.47;0.47;;;20.00;46.70;;;;;;5116153;28;20032;-52
2024/01/26 07:13:46;;;;;;;1.58;0.60;;;20.00;46.70;;;;;;5115846;28;20035;-54
2024/01/26 07:16:12;;;;;;;0.60;0.30;;;19.90;46.70;;;;;;5115418;28;20027;-55
2024/01/26 07:18:37;;;;;;;0.45;0.40;;;20.00;46.70;;;;;;5116029;28;20069;-50
2024/01/26 07:21:07;;;;;;;0.75;0.50;;;20.00;46.80;;;;;;5116313;28;20023;-51
2024/01/26 07:23:34;;;;;;;0.60;0.60;;;20.00;46.80;;;;;;5116122;28;20032;-55
2024/01/26 07:26:01;;;;;;;0.73;0.50;;;20.00;46.80;;;;;;5116208;28;20023;-55
2024/01/26 07:28:27;;;;;;;0.95;0.50;;;20.00;46.90;;;;;;5115897;28;20054;-55
2024/01/26 07:30:53;;;;;;;0.60;0.45;;;20.00;46.90;;;;;;5098142;28;20476;-52
2024/01/26 07:33:18;;;;;;;0.80;0.40;;;20.00;46.90;;;;;;5115103;28;20099;-53
2024/01/26 07:35:44;;;;;;;0.73;0.40;;;20.00;46.90;;;;;;5116264;28;20035;-53
2024/01/26 07:38:10;;;;;;;0.60;0.50;;;20.00;47.00;;;;;;5115536;28;20023;-52
2024/01/26 07:40:36;;;;;;;1.20;0.40;;;20.00;47.00;;;;;;5115626;28;20027;-49
2024/01/26 07:43:02;;;;;;;2.80;0.40;;;20.00;47.00;;;;;;5115357;28;20039;-54
2024/01/26 07:45:27;;;;;;;0.63;0.38;;;20.00;47.00;;;;;;5115550;28;20065;-50
2024/01/26 07:47:53;;;;;;;1.02;0.40;;;20.00;47.10;;;;;;5115799;28;20028;-55
2024/01/26 07:50:19;;;;;;;0.40;0.38;;;20.00;47.10;;;;;;5097375;28;20020;-55
2024/01/26 07:52:45;;;;;;;0.30;0.30;;;20.00;47.10;;;;;;5115063;28;20036;-53
2024/01/26 07:55:10;;;;;;;0.40;0.38;;;20.00;47.10;;;;;;5115881;28;20375;-54
2024/01/26 07:57:37;;;;;;;0.70;0.55;;;20.00;47.20;;;;;;5097311;28;20102;-52
2024/01/26 08:00:06;;;;;;;0.38;0.38;;;20.00;47.20;;;;;;5115570;28;20024;-53
2024/01/26 08:02:32;;;;;;;1.25;0.50;;;20.00;47.20;;;;;;5115070;28;20034;-54
2024/01/26 08:04:58;;;;;;;1.30;0.57;;;20.00;47.30;;;;;;5115225;28;20103;-55
2024/01/26 08:07:23;;;;;;;1.42;0.40;;;20.00;47.30;;;;;;5115463;28;20332;-49
2024/01/26 08:09:49;;;;;;;0.70;0.50;;;20.00;47.30;;;;;;5115266;28;20139;-53
2024/01/26 08:12:15;;;;;;;0.57;0.40;;;20.00;47.40;;;;;;5115082;28;20035;-53
2024/01/26 08:14:41;;;;;;;0.50;0.43;;;20.00;47.50;;;;;;5114936;28;20031;-54
2024/01/26 08:17:06;;;;;;;0.47;0.47;;;20.00;47.50;;;;;;5113977;28;20023;-55
2024/01/26 08:19:32;;;;;;;1.30;0.40;;;19.90;47.50;;;;;;5114988;28;20449;-54
2024/01/26 08:21:58;;;;;;;1.15;0.40;;;20.00;48.20;;;;;;5096271;28;20039;-54
2024/01/26 08:24:24;;;;;;;0.50;0.40;;;20.00;47.60;;;;;;5112083;28;20095;-54
2024/01/26 08:26:50;;;;;;;0.95;0.55;;;20.00;47.70;;;;;;5114945;28;20427;-50
2024/01/26 08:29:16;;;;;;;0.47;0.40;;;20.00;47.70;;;;;;5114226;28;20067;-54
2024/01/26 08:31:42;;;;;;;2.00;0.30;;;20.00;47.70;;;;;;5114514;28;20050;-53
2024/01/26 08:34:07;;;;;;;0.60;0.57;;;20.00;47.70;;;;;;5114636;28;20022;-53
2024/01/26 08:36:33;;;;;;;1.42;0.70;;;20.00;47.80;;;;;;5115468;28;20046;-54
2024/01/26 08:38:59;;;;;;;1.08;0.60;;;20.00;47.80;;;;;;5115678;28;20027;-54
2024/01/26 08:41:25;;;;;;;1.63;0.65;;;20.00;47.90;;;;;;5115304;28;20253;-54
2024/01/26 08:43:51;;;;;;;0.65;0.38;;;20.00;47.90;;;;;;5114714;28;20104;-49
2024/01/26 08:46:16;;;;;;;1.25;0.50;;;20.00;48.00;;;;;;5113345;28;20053;-54
2024/01/26 08:48:42;;;;;;;1.25;0.60;;;20.00;48.00;;;;;;5113424;28;20471;-54
2024/01/26 08:51:08;;;;;;;1.63;0.60;;;20.00;48.10;;;;;;5114790;28;20023;-51
2024/01/26 08:53:34;;;;;;;0.75;0.50;;;20.00;48.10;;;;;;5113964;28;20024;-54
2024/01/26 08:56:05;;;;;;;0.50;0.40;;;20.00;48.20;;;;;;5113542;28;20581;-54
2024/01/26 08:58:30;;;;;;;0.90;0.50;;;20.00;48.30;;;;;;5113779;28;20370;-52
2024/01/26 09:00:56;;;;;;;0.82;0.57;;;20.00;48.30;;;;;;5113329;28;20027;-55
2024/01/26 09:03:22;;;;;;;1.52;0.60;;;20.10;48.40;;;;;;5112578;28;20359;-55
2024/01/26 09:05:48;;;;;;;0.50;0.40;;;20.10;48.30;;;;;;5095594;28;20024;-52
2024/01/26 09:08:14;;;;;;;0.88;0.60;;;20.10;48.30;;;;;;5113806;28;20032;-53
2024/01/26 09:10:40;;;;;;;0.60;0.40;;;20.20;48.30;;;;;;5113401;28;20034;-55
2024/01/26 09:13:07;;;;;;;1.30;0.47;;;20.20;48.20;;;;;;5112447;28;20032;-53
2024/01/26 09:15:32;;;;;;;1.13;0.55;;;20.30;48.20;;;;;;5105044;28;20106;-49
2024/01/26 09:17:58;;;;;;;1.17;0.57;;;20.40;48.10;;;;;;5110679;28;20107;-55
2024/01/26 09:20:24;;;;;;;1.17;0.50;;;20.50;48.10;;;;;;5111616;28;20031;-53
2024/01/26 09:22:50;;;;;;;1.55;0.60;;;20.50;48.10;;;;;;5095048;28;20027;-59
2024/01/26 09:25:16;;;;;;;2.13;1.05;;;20.60;48.00;;;;;;5114809;28;20108;-53
2024/01/26 09:27:42;;;;;;;1.23;0.68;;;20.60;47.90;;;;;;5115217;28;20032;-57
2024/01/26 09:30:08;;;;;;;0.50;0.30;;;20.70;47.80;;;;;;5115596;28;20039;-54
2024/01/26 09:32:34;;;;;;;1.08;0.40;;;20.80;47.70;;;;;;5114937;28;20128;-55
2024/01/26 09:35:03;;;;;;;1.50;0.77;;;20.80;47.60;;;;;;5114808;28;20459;-54
2024/01/26 09:37:28;;;;;;;1.70;0.68;;;20.90;47.50;;;;;;5115061;28;20055;-52
2024/01/26 09:39:55;;;;;;;1.17;0.50;;;20.90;47.30;;;;;;5102746;28;20034;-57
2024/01/26 09:42:21;;;;;;;0.88;0.50;;;21.00;47.20;;;;;;5114745;28;20043;-51
2024/01/26 09:44:47;;;;;;;1.35;0.60;;;21.10;47.10;;;;;;5115132;28;20110;-53
2024/01/26 09:47:15;;;;;;;0.73;0.40;;;21.10;46.90;;;;;;5115138;28;20034;-55
2024/01/26 09:49:56;;;;;;;0.77;0.40;;;21.20;46.80;;;;;;5115308;28;20097;-52
2024/01/26 09:52:23;;;;;;;0.60;0.35;;;21.30;46.40;;;;;;5115229;28;20431;-54
2024/01/26 09:54:51;;;;;;;0.63;0.40;;;21.40;46.50;;;;;;5114461;28;20070;-52
2024/01/26 09:57:20;;;;;;;1.17;0.32;;;21.40;46.20;;;;;;5116957;28;20024;-54
2024/01/26 09:59:50;;;;;;;1.17;0.50;;;21.40;46.00;;;;;;5119379;28;20050;-57
2024/01/26 10:02:21;;;;;;;0.82;0.35;;;21.50;45.90;;;;;;5119009;28;20044;-55
2024/01/26 10:04:47;;;;;;;1.10;0.32;;;21.50;45.60;;;;;;5119214;28;20034;-53
2024/01/26 10:07:15;;;;;;;0.70;0.30;;;21.60;45.30;;;;;;5119131;28;20027;-57
2024/01/26 10:09:44;;;;;;;1.33;0.38;;;21.60;45.00;;;;;;5118556;28;20035;-57
2024/01/26 10:12:10;;;;;;;1.20;0.30;;;21.70;44.80;;;;;;5119035;28;20039;-53
2024/01/26 10:14:37;;;;;;;1.10;0.50;;;21.70;44.50;;;;;;5118842;28;20035;-54
2024/01/26 10:17:03;;;;;;;1.17;0.30;;;21.70;44.30;;;;;;5118819;28;20107;-55
2024/01/26 10:19:30;;;;;;;1.83;0.52;;;21.70;44.10;;;;;;5100674;28;20031;-54
2024/01/26 10:21:56;;;;;;;1.15;0.40;;;21.70;43.90;;;;;;5118426;28;20123;-54
2024/01/26 10:24:24;;;;;;;0.70;0.38;;;21.70;43.70;;;;;;5118045;28;20031;-53
2024/01/26 10:26:53;;;;;;;1.30;0.43;;;21.80;43.60;;;;;;5118524;28;20027;-51
2024/01/26 10:29:20;;;;;;;1.02;0.40;;;21.80;43.40;;;;;;5117430;28;20359;-54
2024/01/26 10:31:47;;;;;;;1.20;0.50;;;21.80;43.20;;;;;;5118448;28;20031;-55
2024/01/26 10:34:17;;;;;;;0.47;0.25;;;21.80;43.10;;;;;;5100197;28;20024;-53
2024/01/26 10:36:44;;;;;;;1.17;0.30;;;21.80;43.00;;;;;;5117994;28;20034;-56
2024/01/26 10:39:16;;;;;;;0.68;0.38;;;21.80;42.90;;;;;;5118228;28;20036;-54
2024/01/26 10:41:46;;;;;;;1.95;0.43;;;21.80;42.80;;;;;;5117938;28;20443;-51
2024/01/26 10:44:13;;;;;;;1.42;0.43;;;21.80;42.60;;;;;;5117797;28;20024;-53
2024/01/26 10:46:47;;;;;;;0.60;0.30;;;21.80;42.50;;;;;;5113422;28;20027;-52
2024/01/26 10:49:13;;;;;;;2.45;0.50;;;21.90;42.50;;;;;;5117759;28;20038;-50
2024/01/26 10:51:43;;;;;;;1.02;0.40;;;21.80;42.40;;;;;;5118268;28;20023;-55
2024/01/26 10:54:10;;;;;;;1.48;0.60;;;21.80;42.20;;;;;;5118179;28;20115;-56
2024/01/26 10:56:37;;;;;;;1.38;0.50;;;21.80;42.10;;;;;;5118196;28;20347;-54
2024/01/26 10:59:03;;;;;;;0.90;0.43;;;21.80;42.00;;;;;;5117671;28;20024;-53
2024/01/26 11:01:30;;;;;;;1.08;0.50;;;21.80;41.90;;;;;;5118036;28;20091;-55
2024/01/26 11:03:56;;;;;;;1.25;0.40;;;21.80;41.80;;;;;;5099974;28;20039;-52
2024/01/26 11:06:22;;;;;;;2.13;0.30;;;21.80;41.70;;;;;;5099950;28;20032;-52
2024/01/26 11:08:48;;;;;;;1.10;0.50;;;21.80;41.60;;;;;;5117093;28;20323;-54
2024/01/26 11:11:17;;;;;;;2.75;0.55;;;21.80;41.50;;;;;;5117933;28;20038;-51
2024/01/26 11:13:52;;;;;;;1.83;0.70;;;21.80;41.40;;;;;;5117769;28;20423;-54
2024/01/26 11:16:18;;;;;;;2.60;0.63;;;21.80;41.30;;;;;;5117442;28;20035;-53
2024/01/26 11:18:53;;;;;;;2.15;0.77;;;21.70;41.10;;;;;;5116474;28;20016;-55
2024/01/26 11:21:19;;;;;;;2.03;0.60;;;21.70;41.10;;;;;;5114644;28;20103;-56
2024/01/26 11:23:45;;;;;;;1.85;0.80;;;21.70;41.00;;;;;;5098268;28;20095;-55
2024/01/26 11:26:15;;;;;;;2.45;0.60;;;21.70;40.90;;;;;;5110319;28;20035;-54
2024/01/26 11:28:41;;;;;;;1.92;0.60;;;21.70;40.80;;;;;;5109258;28;20359;-55
2024/01/26 11:31:07;;;;;;;2.10;0.70;;;21.70;40.80;;;;;;5092684;28;20028;-54
2024/01/26 11:33:39;;;;;;;1.25;0.50;;;21.70;40.80;;;;;;5115940;28;20115;-53
2024/01/26 11:36:11;;;;;;;2.55;0.50;;;21.70;40.70;;;;;;5115883;28;20036;-52
2024/01/26 11:38:38;;;;;;;1.08;0.50;;;21.60;40.60;;;;;;5115261;28;20050;-53
2024/01/26 11:41:06;;;;;;;2.38;0.80;;;21.60;40.60;;;;;;5115362;28;20020;-55
2024/01/26 11:43:32;;;;;;;1.75;0.55;;;21.60;40.50;;;;;;5115858;28;20034;-52
2024/01/26 11:45:58;;;;;;;1.67;0.60;;;21.60;40.50;;;;;;5115587;28;20027;-53
2024/01/26 11:48:24;;;;;;;1.33;0.50;;;21.60;40.40;;;;;;5080585;28;20442;-52
2024/01/26 11:50:50;;;;;;;1.85;0.77;;;21.60;40.30;;;;;;5115665;28;20023;-54
2024/01/26 11:53:17;;;;;;;1.55;0.63;;;21.60;40.30;;;;;;5115467;28;20027;-54
2024/01/26 11:55:44;;;;;;;1.17;0.50;;;21.60;40.30;;;;;;5114784;28;20115;-51
2024/01/26 11:58:11;;;;;;;1.55;0.70;;;21.50;40.20;;;;;;5115310;28;20043;-51
2024/01/26 12:00:37;;;;;;;1.58;0.63;;;21.60;40.20;;;;;;5114944;28;20470;-55
2024/01/26 12:03:08;;;;;;;4.28;0.70;;;21.50;40.20;;;;;;5115656;28;20028;-53
2024/01/26 12:05:37;;;;;;;2.13;0.70;;;21.50;40.20;;;;;;5114916;28;20031;-54
2024/01/26 12:08:05;;;;;;;1.23;0.45;;;21.50;40.10;;;;;;5114804;28;20043;-53
2024/01/26 12:10:32;;;;;;;1.40;0.60;;;21.50;40.10;;;;;;5115217;28;20103;-53
2024/01/26 12:12:58;;;;;;;1.95;0.60;;;21.50;40.00;;;;;;5115261;28;20369;-53
2024/01/26 12:15:31;;;;;;;1.52;0.60;;;21.50;39.90;;;;;;5112710;28;20034;-56
2024/01/26 12:18:07;;;;;;;1.55;0.90;;;21.50;39.90;;;;;;5096898;28;20085;-51
2024/01/26 12:20:34;;;;;;;2.28;1.10;;;21.50;39.90;;;;;;5112369;28;20038;-54
2024/01/26 12:22:59;;;;;;;2.70;0.88;;;21.50;40.00;;;;;;5114916;28;20023;-55
2024/01/26 12:25:27;;;;;;;2.50;0.82;;;21.50;40.00;;;;;;5114638;28;20363;-54
2024/01/26 12:28:02;;;;;;;2.03;0.60;;;21.50;40.10;;;;;;5114515;28;20027;-54
2024/01/26 12:30:28;;;;;;;7.60;1.00;;;21.50;40.00;;;;;;5113826;28;20027;-56
2024/01/26 12:33:06;;;;;;;5.80;1.50;;;21.50;40.10;;;;;;5121921;27;20028;-54
2024/01/26 12:35:35;;;;;;;5.38;1.23;;;21.50;40.00;;;;;;5110767;28;20098;-58
2024/01/26 12:38:01;;;;;;;5.32;1.50;;;21.50;40.00;;;;;;5096669;28;20032;-62
2024/01/26 12:40:27;;;;;;;2.92;0.88;;;21.60;39.80;;;;;;5112894;28;20028;-56
2024/01/26 12:42:54;;;;;;;3.67;1.00;;;21.70;39.70;;;;;;5114575;28;20058;-53
2024/01/26 12:45:20;;;;;;;4.88;1.02;;;21.80;39.60;;;;;;5115156;28;20354;-55